createdAt,value
2018-08-09T00:00:16.879Z,20.50
2018-08-09T00:02:46.137Z,20.32
2018-08-09T00:05:15.395Z,20.33
2018-08-09T00:07:44.794Z,20.18
2018-08-09T00:10:14.046Z,20.19
2018-08-09T00:12:43.083Z,20.39
2018-08-09T00:15:13.228Z,20.24
2018-08-09T00:17:43.686Z,20.22
2018-08-09T00:20:13.542Z,20.13
2018-08-09T00:22:42.770Z,20.14
2018-08-09T00:25:11.712Z,20.10
2018-08-09T00:27:40.967Z,20.06
2018-08-09T00:30:10.035Z,19.99
2018-08-09T00:32:40.106Z,20.01
2018-08-09T00:35:09.318Z,20.08
2018-08-09T00:37:39.449Z,19.94
2018-08-09T00:40:08.914Z,19.81
2018-08-09T00:42:38.315Z,19.83
2018-08-09T00:45:07.975Z,19.93
2018-08-09T00:47:37.231Z,19.70
2018-08-09T00:50:07.083Z,19.71
2018-08-09T00:52:36.378Z,19.80
2018-08-09T00:55:06.261Z,19.71
2018-08-09T00:57:35.466Z,19.60
2018-08-09T01:00:05.667Z,19.57
2018-08-09T01:02:34.856Z,19.62
2018-08-09T01:05:04.174Z,19.70
2018-08-09T01:07:33.286Z,19.68
2018-08-09T01:10:02.539Z,19.79
2018-08-09T01:12:31.513Z,19.71
2018-08-09T01:15:01.575Z,19.62
2018-08-09T01:17:30.586Z,19.69
2018-08-09T01:19:59.806Z,19.75
2018-08-09T01:22:29.307Z,19.62
2018-08-09T01:24:58.403Z,19.56
2018-08-09T01:27:28.198Z,19.50
2018-08-09T01:29:57.755Z,19.51
2018-08-09T01:32:27.259Z,19.47
2018-08-09T01:34:56.382Z,19.25
2018-08-09T01:37:25.498Z,19.29
2018-08-09T01:39:54.982Z,19.44
2018-08-09T01:42:35.046Z,19.44
2018-08-09T01:45:04.454Z,19.43
2018-08-09T01:47:33.506Z,19.50
2018-08-09T01:50:03.099Z,19.45
2018-08-09T01:52:32.506Z,19.48
2018-08-09T01:55:02.054Z,19.62
2018-08-09T01:57:31.125Z,19.68
2018-08-09T02:00:01.096Z,19.73
2018-08-09T02:02:30.571Z,19.89
2018-08-09T02:05:00.119Z,19.88
2018-08-09T02:07:29.774Z,19.82
2018-08-09T02:09:59.075Z,19.90
2018-08-09T02:12:28.154Z,19.92
2018-08-09T02:14:58.281Z,19.95
2018-08-09T02:17:27.266Z,19.96
2018-08-09T02:19:57.110Z,19.90
2018-08-09T02:22:26.583Z,19.89
2018-08-09T02:24:55.703Z,19.90
2018-08-09T02:27:25.171Z,19.87
2018-08-09T02:29:54.666Z,19.87
2018-08-09T02:32:24.216Z,19.83
2018-08-09T02:34:53.514Z,19.82
2018-08-09T02:37:22.617Z,19.79
2018-08-09T02:39:51.539Z,19.81
2018-08-09T02:42:20.794Z,19.81
2018-08-09T02:44:50.869Z,19.85
2018-08-09T02:47:20.467Z,19.79
2018-08-09T02:49:49.699Z,19.96
2018-08-09T02:52:19.039Z,19.89
2018-08-09T02:54:48.091Z,19.87
2018-08-09T02:57:17.551Z,19.77
2018-08-09T02:59:47.163Z,19.94
2018-08-09T03:02:16.543Z,19.94
2018-08-09T03:04:45.718Z,19.91
2018-08-09T03:07:15.427Z,19.77
2018-08-09T03:09:44.837Z,19.66
2018-08-09T03:12:14.067Z,19.80
2018-08-09T03:14:43.183Z,19.71
2018-08-09T03:17:12.292Z,19.68
2018-08-09T03:19:41.782Z,19.56
2018-08-09T03:22:11.067Z,19.58
2018-08-09T03:24:40.370Z,19.72
2018-08-09T03:27:09.282Z,19.82
2018-08-09T03:29:38.684Z,19.99
2018-08-09T03:32:07.823Z,19.98
2018-08-09T03:34:37.318Z,20.09
2018-08-09T03:37:06.390Z,20.16
2018-08-09T03:39:35.934Z,20.04
2018-08-09T03:42:05.450Z,20.15
2018-08-09T03:44:34.942Z,20.08
2018-08-09T03:47:04.595Z,20.03
2018-08-09T03:49:34.185Z,20.09
2018-08-09T03:52:03.495Z,20.14
2018-08-09T03:54:32.782Z,20.18
2018-08-09T03:57:01.892Z,20.19
2018-08-09T03:59:31.169Z,20.17
2018-08-09T04:02:00.120Z,20.27
2018-08-09T04:04:29.339Z,20.22
2018-08-09T04:06:58.470Z,20.23
2018-08-09T04:09:27.735Z,20.05
2018-08-09T04:11:56.908Z,20.06
2018-08-09T04:14:26.134Z,20.15
2018-08-09T04:16:55.058Z,20.05
2018-08-09T04:19:24.589Z,20.08
2018-08-09T04:21:54.018Z,19.99
2018-08-09T04:24:23.859Z,20.07
2018-08-09T04:26:52.851Z,20.00
2018-08-09T04:29:22.338Z,19.91
2018-08-09T04:31:51.647Z,20.01
2018-08-09T04:34:20.949Z,20.09
2018-08-09T04:36:50.042Z,20.11
2018-08-09T04:39:19.142Z,20.17
2018-08-09T04:41:48.626Z,20.22
2018-08-09T04:44:18.115Z,20.23
2018-08-09T04:46:47.638Z,20.19
2018-08-09T04:49:16.775Z,20.13
2018-08-09T04:51:46.234Z,20.06
2018-08-09T04:54:15.338Z,20.00
2018-08-09T04:56:44.893Z,20.06
2018-08-09T04:59:14.559Z,20.05
2018-08-09T05:01:44.094Z,19.97
2018-08-09T05:04:13.138Z,20.08
2018-08-09T05:06:43.483Z,20.11
2018-08-09T05:09:12.582Z,20.00
2018-08-09T05:11:42.287Z,20.06
2018-08-09T05:14:11.402Z,20.23
2018-08-09T05:16:41.123Z,20.25
2018-08-09T05:19:10.397Z,20.21
2018-08-09T05:21:39.717Z,20.32
2018-08-09T05:24:09.206Z,19.67
2018-08-09T05:26:38.701Z,19.77
2018-08-09T05:29:08.256Z,19.99
2018-08-09T05:31:37.518Z,20.09
2018-08-09T05:34:07.269Z,20.03
2018-08-09T05:36:36.746Z,20.37
2018-08-09T05:39:09.334Z,20.62
2018-08-09T05:41:38.960Z,20.95
2018-08-09T05:44:08.471Z,20.97
2018-08-09T05:46:37.388Z,20.92
2018-08-09T05:49:06.834Z,20.80
2018-08-09T05:51:36.037Z,20.91
2018-08-09T05:54:05.536Z,21.26
2018-08-09T05:56:35.010Z,21.21
2018-08-09T05:59:04.527Z,21.21
2018-08-09T06:01:34.190Z,21.27
2018-08-09T06:04:03.751Z,21.40
2018-08-09T06:06:33.294Z,21.23
2018-08-09T06:09:02.618Z,20.47
2018-08-09T06:11:31.575Z,20.66
2018-08-09T06:14:00.880Z,20.28
2018-08-09T06:16:29.818Z,20.48
2018-08-09T06:18:58.917Z,20.59
2018-08-09T06:21:28.680Z,20.64
2018-08-09T06:23:57.697Z,20.61
2018-08-09T06:26:27.765Z,20.67
2018-08-09T06:28:56.946Z,20.53
2018-08-09T06:31:26.667Z,20.41
2018-08-09T06:33:55.786Z,20.46
2018-08-09T06:36:25.662Z,20.34
2018-08-09T06:38:54.987Z,20.44
2018-08-09T06:41:24.290Z,20.48
2018-08-09T06:43:54.071Z,20.46
2018-08-09T06:46:23.896Z,20.46
2018-08-09T06:48:53.450Z,20.61
2018-08-09T06:51:23.169Z,20.58
2018-08-09T06:53:52.388Z,20.65
2018-08-09T06:56:21.749Z,20.70
2018-08-09T06:58:51.309Z,20.69
2018-08-09T07:01:21.099Z,20.64
2018-08-09T07:03:50.261Z,20.65
2018-08-09T07:06:19.480Z,20.63
2018-08-09T07:08:49.448Z,20.68
2018-08-09T07:11:19.123Z,20.64
2018-08-09T07:13:48.890Z,20.77
2018-08-09T07:16:18.353Z,20.89
2018-08-09T07:18:47.847Z,21.02
2018-08-09T07:21:17.116Z,21.23
2018-08-09T07:23:46.274Z,21.11
2018-08-09T07:26:15.409Z,21.31
2018-08-09T07:28:44.647Z,21.68
2018-08-09T07:31:13.918Z,21.76
2018-08-09T07:33:43.483Z,21.89
2018-08-09T07:36:12.930Z,21.87
2018-08-09T07:38:42.573Z,21.87
2018-08-09T07:41:11.558Z,21.47
2018-08-09T07:43:42.085Z,21.36
2018-08-09T07:46:11.034Z,21.94
2018-08-09T07:48:40.690Z,21.92
2018-08-09T07:51:10.221Z,22.71
2018-08-09T07:53:39.527Z,23.15
2018-08-09T07:56:09.182Z,22.77
2018-08-09T07:58:38.800Z,23.14
2018-08-09T08:01:08.355Z,23.74
2018-08-09T08:03:37.947Z,24.62
2018-08-09T08:06:07.368Z,23.81
2018-08-09T08:08:36.486Z,23.23
2018-08-09T08:11:05.602Z,23.45
2018-08-09T08:13:35.035Z,24.13
2018-08-09T08:16:04.446Z,23.78
2018-08-09T08:18:33.734Z,24.67
2018-08-09T08:21:03.666Z,25.44
2018-08-09T08:23:33.303Z,26.24
2018-08-09T08:26:02.487Z,26.70
2018-08-09T08:28:31.890Z,26.94
2018-08-09T08:31:01.786Z,26.73
2018-08-09T08:33:31.399Z,27.06
2018-08-09T08:36:01.063Z,26.20
2018-08-09T08:38:30.595Z,26.55
2018-08-09T08:41:00.094Z,27.18
2018-08-09T08:43:29.183Z,28.15
2018-08-09T08:45:58.709Z,25.96
2018-08-09T08:48:27.806Z,27.18
2018-08-09T08:50:57.258Z,26.36
2018-08-09T08:53:26.799Z,25.41
2018-08-09T08:55:56.285Z,26.26
2018-08-09T08:58:26.000Z,27.37
2018-08-09T09:00:55.428Z,27.82
2018-08-09T09:03:25.019Z,26.56
2018-08-09T09:05:53.953Z,27.02
2018-08-09T09:08:23.274Z,28.11
2018-08-09T09:10:56.266Z,28.36
2018-08-09T09:13:25.906Z,28.83
2018-08-09T09:15:55.002Z,28.77
2018-08-09T09:18:24.124Z,26.95
2018-08-09T09:20:53.777Z,27.53
2018-08-09T09:23:23.576Z,27.36
2018-08-09T09:25:52.795Z,28.21
2018-08-09T09:28:22.083Z,28.33
2018-08-09T09:30:51.858Z,29.06
2018-08-09T09:33:21.587Z,27.96
2018-08-09T09:35:51.234Z,29.43
2018-08-09T09:38:20.782Z,30.51
2018-08-09T09:40:50.998Z,30.72
2018-08-09T09:43:20.421Z,29.16
2018-08-09T09:45:50.091Z,29.99
2018-08-09T09:48:19.911Z,30.66
2018-08-09T09:50:49.215Z,29.12
2018-08-09T09:53:18.411Z,31.01
2018-08-09T09:55:47.686Z,31.26
2018-08-09T09:58:17.274Z,32.19
2018-08-09T10:00:52.007Z,32.57
2018-08-09T10:03:21.097Z,30.51
2018-08-09T10:05:50.398Z,31.40
2018-08-09T10:08:19.885Z,30.20
2018-08-09T10:10:49.310Z,30.39
2018-08-09T10:13:18.314Z,30.80
2018-08-09T10:15:47.620Z,31.53
2018-08-09T10:18:17.343Z,32.09
2018-08-09T10:20:46.866Z,30.56
2018-08-09T10:23:16.299Z,30.11
2018-08-09T10:25:45.690Z,30.97
2018-08-09T10:28:14.921Z,30.15
2018-08-09T10:30:44.030Z,30.14
2018-08-09T10:33:13.429Z,30.31
2018-08-09T10:35:42.636Z,31.16
2018-08-09T10:38:11.723Z,31.82
2018-08-09T10:40:41.230Z,30.90
2018-08-09T10:43:10.819Z,32.46
2018-08-09T10:45:40.053Z,31.24
2018-08-09T10:48:10.226Z,32.04
2018-08-09T10:50:39.474Z,31.67
2018-08-09T10:53:09.208Z,30.39
2018-08-09T10:55:38.474Z,30.70
2018-08-09T10:58:07.750Z,30.45
2018-08-09T11:00:36.693Z,30.30
2018-08-09T11:03:06.082Z,30.01
2018-08-09T11:05:35.230Z,29.84
2018-08-09T11:08:04.814Z,29.69
2018-08-09T11:10:34.870Z,29.76
2018-08-09T11:13:04.086Z,30.50
2018-08-09T11:15:33.729Z,31.11
2018-08-09T11:18:02.962Z,30.92
2018-08-09T11:20:32.062Z,31.34
2018-08-09T11:23:01.299Z,31.84
2018-08-09T11:25:31.140Z,31.19
2018-08-09T11:28:00.594Z,31.18
2018-08-09T11:30:30.674Z,31.44
2018-08-09T11:32:59.915Z,31.63
2018-08-09T11:35:30.246Z,31.83
2018-08-09T11:37:59.887Z,31.43
2018-08-09T11:40:29.111Z,31.73
2018-08-09T11:42:58.382Z,31.37
2018-08-09T11:45:28.413Z,30.90
2018-08-09T11:47:57.687Z,30.64
2018-08-09T11:50:26.961Z,30.70
2018-08-09T11:52:56.023Z,30.71
2018-08-09T11:55:25.135Z,30.59
2018-08-09T11:57:54.210Z,30.62
2018-08-09T12:00:23.746Z,30.59
2018-08-09T12:02:52.826Z,30.64
2018-08-09T12:05:21.789Z,30.53
2018-08-09T12:07:51.504Z,30.52
2018-08-09T12:10:20.730Z,30.70
2018-08-09T12:12:49.842Z,31.04
2018-08-09T12:15:19.176Z,31.16
2018-08-09T12:17:48.445Z,31.14
2018-08-09T12:20:18.150Z,31.01
2018-08-09T12:22:47.578Z,30.84
2018-08-09T12:25:16.775Z,30.58
2018-08-09T12:27:46.426Z,30.42
2018-08-09T12:30:17.133Z,30.30
2018-08-09T12:32:46.554Z,30.20
2018-08-09T12:35:16.343Z,30.14
2018-08-09T12:37:45.927Z,29.10
2018-08-09T12:40:15.224Z,27.69
2018-08-09T12:42:44.970Z,25.83
2018-08-09T12:45:14.791Z,24.71
2018-08-09T12:47:43.977Z,24.00
2018-08-09T12:50:14.606Z,22.92
2018-08-09T12:52:45.047Z,22.57
2018-08-09T12:55:14.930Z,22.61
2018-08-09T12:57:44.233Z,22.10
2018-08-09T13:00:14.616Z,21.93
2018-08-09T13:02:43.827Z,21.62
2018-08-09T13:05:13.374Z,21.88
2018-08-09T13:07:43.082Z,21.52
2018-08-09T13:10:13.791Z,21.97
2018-08-09T13:12:43.115Z,21.71
2018-08-09T13:15:13.897Z,21.83
2018-08-09T13:17:44.294Z,22.07
2018-08-09T13:20:17.066Z,22.12
2018-08-09T13:22:46.690Z,22.11
2018-08-09T13:25:16.133Z,22.25
2018-08-09T13:27:45.214Z,22.35
2018-08-09T13:30:15.071Z,22.14
2018-08-09T13:32:45.063Z,22.34
2018-08-09T13:35:14.331Z,22.20
2018-08-09T13:37:43.987Z,22.24
2018-08-09T13:40:13.499Z,22.30
2018-08-09T13:42:42.698Z,22.33
2018-08-09T13:45:15.362Z,22.14
2018-08-09T13:47:44.340Z,21.94
2018-08-09T13:50:13.845Z,22.37
2018-08-09T13:52:43.223Z,22.43
2018-08-09T13:55:14.424Z,22.51
2018-08-09T13:57:44.222Z,22.52
2018-08-09T14:00:14.389Z,22.50
2018-08-09T14:02:45.064Z,22.21
2018-08-09T14:05:14.802Z,22.47
2018-08-09T14:07:45.231Z,22.41
2018-08-09T14:10:14.798Z,22.30
2018-08-09T14:12:45.147Z,22.53
2018-08-09T14:15:15.632Z,22.27
2018-08-09T14:17:45.343Z,22.68
2018-08-09T14:20:16.742Z,22.64
2018-08-09T14:22:47.106Z,22.76
2018-08-09T14:25:16.483Z,22.98
2018-08-09T14:27:46.341Z,22.91
2018-08-09T14:30:16.751Z,23.15
2018-08-09T14:32:46.090Z,22.77
2018-08-09T14:35:16.804Z,22.77
2018-08-09T14:37:46.653Z,22.47
2018-08-09T14:40:17.075Z,22.60
2018-08-09T14:42:46.154Z,22.76
2018-08-09T14:45:17.651Z,22.63
2018-08-09T14:47:47.257Z,22.57
2018-08-09T14:50:16.703Z,22.41
2018-08-09T14:52:45.654Z,22.35
2018-08-09T14:55:15.470Z,22.35
2018-08-09T14:57:44.634Z,22.32
2018-08-09T15:00:18.734Z,22.33
2018-08-09T15:02:48.372Z,22.43
2018-08-09T15:05:18.326Z,22.63
2018-08-09T15:07:48.005Z,22.58
2018-08-09T15:10:18.302Z,22.62
2018-08-09T15:12:48.214Z,22.56
2018-08-09T15:15:18.351Z,22.58
2018-08-09T15:17:47.677Z,22.58
2018-08-09T15:20:17.200Z,22.67
2018-08-09T15:22:47.237Z,22.55
2018-08-09T15:25:26.858Z,22.62
2018-08-09T15:27:56.283Z,22.62
2018-08-09T15:30:25.416Z,22.68
2018-08-09T15:32:54.457Z,22.66
2018-08-09T15:35:23.827Z,22.55
2018-08-09T15:37:53.331Z,22.53
2018-08-09T15:40:23.101Z,22.61
2018-08-09T15:42:52.303Z,22.62
2018-08-09T15:45:21.618Z,22.55
2018-08-09T15:47:50.901Z,22.60
2018-08-09T15:50:20.823Z,22.55
2018-08-09T15:52:50.419Z,22.68
2018-08-09T15:55:20.310Z,22.74
2018-08-09T15:57:49.534Z,22.71
2018-08-09T16:00:21.902Z,22.64
2018-08-09T16:02:51.410Z,22.64
2018-08-09T16:05:20.978Z,22.69
2018-08-09T16:07:50.842Z,22.86
2018-08-09T16:10:20.126Z,22.82
2018-08-09T16:12:49.402Z,22.75
2018-08-09T16:15:19.635Z,22.76
2018-08-09T16:17:49.754Z,22.79
2018-08-09T16:20:18.936Z,22.83
2018-08-09T16:22:48.100Z,22.87
2018-08-09T16:25:18.807Z,22.86
2018-08-09T16:27:49.037Z,22.94
2018-08-09T16:30:21.056Z,22.97
2018-08-09T16:32:50.558Z,22.87
2018-08-09T16:35:19.857Z,22.86
2018-08-09T16:37:49.490Z,22.97
2018-08-09T16:40:21.103Z,22.91
2018-08-09T16:42:50.253Z,22.93
2018-08-09T16:45:20.802Z,22.92
2018-08-09T16:47:50.770Z,23.26
2018-08-09T16:50:21.700Z,23.10
2018-08-09T16:52:51.950Z,23.10
2018-08-09T16:55:22.340Z,23.10
2018-08-09T16:57:52.198Z,23.10
2018-08-09T17:00:24.119Z,23.19
2018-08-09T17:02:54.414Z,23.21
2018-08-09T17:05:26.046Z,23.20
2018-08-09T17:07:55.046Z,23.25
2018-08-09T17:10:25.418Z,23.24
2018-08-09T17:12:55.568Z,23.24
2018-08-09T17:15:27.011Z,23.31
2018-08-09T17:17:56.994Z,23.27
2018-08-09T17:20:29.024Z,23.29
2018-08-09T17:22:58.479Z,23.40
2018-08-09T17:25:28.420Z,23.41
2018-08-09T17:27:57.532Z,23.36
2018-08-09T17:30:27.960Z,23.36
2018-08-09T17:32:57.971Z,23.30
2018-08-09T17:35:27.038Z,23.28
2018-08-09T17:40:27.366Z,23.37
2018-08-09T17:42:57.422Z,23.41
2018-08-09T17:45:28.765Z,23.42
2018-08-09T17:47:58.278Z,23.44
2018-08-09T17:50:27.572Z,23.53
2018-08-09T17:52:58.711Z,23.56
2018-08-09T17:55:27.822Z,23.59
2018-08-09T17:57:57.092Z,23.55
2018-08-09T18:00:28.880Z,23.60
2018-08-09T18:02:58.162Z,23.56
2018-08-09T18:05:27.496Z,23.69
2018-08-09T18:07:57.725Z,23.71
2018-08-09T18:10:29.867Z,23.73
2018-08-09T18:12:59.017Z,23.84
2018-08-09T18:15:29.378Z,23.78
2018-08-09T18:17:59.288Z,23.86
2018-08-09T18:20:31.449Z,23.79
2018-08-09T18:23:01.071Z,23.80
2018-08-09T18:25:30.061Z,23.87
2018-08-09T18:27:59.518Z,23.87
2018-08-09T18:30:28.506Z,23.91
2018-08-09T18:32:57.739Z,23.88
2018-08-09T18:35:27.322Z,23.83
2018-08-09T18:37:56.583Z,23.82
2018-08-09T18:40:27.358Z,23.77
2018-08-09T18:42:56.643Z,23.56
2018-08-09T18:45:26.255Z,23.42
2018-08-09T18:47:55.409Z,23.46
2018-08-09T18:50:28.981Z,23.45
2018-08-09T18:52:58.324Z,23.25
2018-08-09T18:55:27.709Z,23.25
2018-08-09T18:57:56.904Z,23.22
2018-08-09T19:00:28.269Z,23.08
2018-08-09T19:02:57.829Z,22.98
2018-08-09T19:05:27.652Z,22.94
2018-08-09T19:07:56.979Z,22.97
2018-08-09T19:10:28.510Z,22.94
2018-08-09T19:12:57.602Z,22.89
2018-08-09T19:15:26.914Z,22.86
2018-08-09T19:17:55.992Z,22.79
2018-08-09T19:20:28.262Z,22.76
2018-08-09T19:22:57.679Z,22.81
2018-08-09T19:25:26.800Z,22.78
2018-08-09T19:27:56.042Z,22.76
2018-08-09T19:30:27.019Z,22.73
2018-08-09T19:32:56.298Z,22.88
2018-08-09T19:35:25.597Z,23.01
2018-08-09T19:37:54.929Z,22.91
2018-08-09T19:40:28.068Z,23.04
2018-08-09T19:42:57.543Z,22.65
2018-08-09T19:45:26.922Z,22.71
2018-08-09T19:47:56.244Z,22.85
2018-08-09T19:50:26.567Z,22.85
2018-08-09T19:52:56.035Z,22.82
2018-08-09T19:55:26.375Z,22.80
2018-08-09T19:57:55.654Z,22.75
2018-08-09T20:00:26.879Z,22.64
2018-08-09T20:02:56.098Z,22.78
2018-08-09T20:05:25.582Z,22.58
2018-08-09T20:07:55.329Z,22.42
2018-08-09T20:10:24.599Z,22.11
2018-08-09T20:12:53.713Z,21.96
2018-08-09T20:15:24.552Z,21.91
2018-08-09T20:17:53.706Z,22.13
2018-08-09T20:20:25.969Z,22.11
2018-08-09T20:22:55.226Z,21.97
2018-08-09T20:25:24.493Z,21.98
2018-08-09T20:27:54.206Z,21.98
2018-08-09T20:30:23.879Z,21.82
2018-08-09T20:32:52.999Z,22.08
2018-08-09T20:35:23.962Z,21.97
2018-08-09T20:37:53.646Z,21.90
2018-08-09T20:40:23.795Z,21.90
2018-08-09T20:42:54.298Z,21.97
2018-08-09T20:45:24.608Z,21.84
2018-08-09T20:47:54.203Z,21.83
2018-08-09T20:50:25.968Z,21.78
2018-08-09T20:52:55.826Z,21.66
2018-08-09T20:55:25.088Z,21.50
2018-08-09T20:57:55.283Z,21.59
2018-08-09T21:00:26.288Z,21.71
2018-08-09T21:02:57.203Z,21.68
2018-08-09T21:05:28.771Z,21.77
2018-08-09T21:07:58.612Z,21.48
2018-08-09T21:10:28.543Z,21.55
2018-08-09T21:12:57.846Z,21.69
2018-08-09T21:15:27.234Z,21.87
2018-08-09T21:17:56.143Z,21.83
2018-08-09T21:20:25.287Z,22.01
2018-08-09T21:22:54.182Z,21.89
2018-08-09T21:25:23.478Z,22.03
2018-08-09T21:27:53.153Z,21.71
2018-08-09T21:30:23.393Z,21.42
2018-08-09T21:32:53.409Z,21.20
2018-08-09T21:35:22.485Z,21.34
2018-08-09T21:37:52.439Z,21.39
2018-08-09T21:40:22.389Z,21.06
2018-08-09T21:42:52.490Z,21.05
2018-08-09T21:45:21.543Z,21.07
2018-08-09T21:47:50.606Z,21.09
2018-08-09T21:50:21.373Z,20.86
2018-08-09T21:52:50.682Z,20.49
2018-08-09T21:55:19.811Z,20.55
2018-08-09T21:57:49.050Z,20.41
2018-08-09T22:00:28.010Z,20.66
2018-08-09T22:02:57.061Z,20.83
2018-08-09T22:05:31.322Z,20.75
2018-08-09T22:08:05.679Z,20.67
2018-08-09T22:10:39.905Z,20.46
2018-08-09T22:13:14.619Z,20.29
2018-08-09T22:15:48.998Z,20.28
2018-08-09T22:20:28.488Z,20.54
2018-08-09T22:22:57.621Z,20.09
2018-08-09T22:25:26.754Z,20.16
2018-08-09T22:27:56.503Z,20.27
2018-08-09T22:30:25.726Z,20.29
2018-08-09T22:32:54.858Z,20.16
2018-08-09T22:35:25.133Z,20.14
2018-08-09T22:37:54.104Z,19.98
2018-08-09T22:40:23.043Z,19.59
2018-08-09T22:42:52.239Z,19.68
2018-08-09T22:45:21.746Z,19.72
2018-08-09T22:47:50.882Z,19.51
2018-08-09T22:50:20.107Z,19.78
2018-08-09T22:52:49.458Z,19.58
2018-08-09T22:55:18.902Z,19.45
2018-08-09T22:57:48.021Z,19.64
2018-08-09T23:00:22.755Z,19.49
2018-08-09T23:02:52.085Z,19.43
2018-08-09T23:05:21.491Z,19.54
2018-08-09T23:07:51.026Z,19.51
2018-08-09T23:10:20.419Z,19.47
2018-08-09T23:12:50.055Z,19.34
2018-08-09T23:15:19.291Z,19.25
2018-08-09T23:17:48.563Z,19.41
2018-08-09T23:20:17.679Z,19.63
2018-08-09T23:22:46.786Z,19.30
2018-08-09T23:25:15.862Z,19.14
2018-08-09T23:27:46.638Z,19.05
2018-08-09T23:30:15.905Z,19.00
2018-08-09T23:32:45.412Z,19.18
2018-08-09T23:35:14.535Z,19.25
2018-08-09T23:37:43.796Z,19.34
2018-08-09T23:40:13.059Z,19.16
2018-08-09T23:42:42.181Z,19.07
2018-08-09T23:45:11.315Z,19.28
2018-08-09T23:47:41.226Z,19.25
2018-08-09T23:50:12.079Z,19.14
2018-08-09T23:52:41.971Z,19.34
2018-08-09T23:55:15.080Z,18.97
2018-08-09T23:57:44.469Z,18.67
